Time;durP1;ratioP1;P1;durP2;ratioP2;P2;SDS_P1;SDS_P2;PMS_P1;PMS_P2;Temp;Humidity;BMP_temperature;BMP_pressure;BME280_temperature;BME280_humidity;BME280_pressure;Samples;Min_cycle;Max_cycle;Signal;HPM_P1;HPM_P2
2023/09/16 00:01:41;;;;;;;13.75;10.18;;;487.10;2380.80;;;;;;5088450;28;20081;-63
2023/09/16 00:04:08;;;;;;;13.05;10.35;;;487.10;2380.80;;;;;;5088799;28;20020;-63
2023/09/16 00:06:34;;;;;;;15.50;11.82;;;487.20;2380.80;;;;;;5088512;28;20029;-61
2023/09/16 00:09:00;;;;;;;18.25;11.95;;;487.10;2380.80;;;;;;5088385;28;20028;-62
2023/09/16 00:11:27;;;;;;;13.38;11.98;;;487.10;2380.80;;;;;;5089048;28;20366;-62
2023/09/16 00:13:53;;;;;;;13.70;12.27;;;487.10;1996.80;;;;;;5081587;28;20390;-63
2023/09/16 00:16:19;;;;;;;13.25;11.82;;;487.10;2380.80;;;;;;5087186;28;20111;-63
2023/09/16 00:18:45;;;;;;;14.73;11.65;;;486.90;2380.80;;;;;;5092132;28;20035;-63
2023/09/16 00:21:10;;;;;;;15.38;12.15;;;486.90;2380.80;;;;;;5092833;28;20056;-64
2023/09/16 00:23:37;;;;;;;14.10;11.90;;;486.90;2176.00;;;;;;5092689;28;20024;-62
2023/09/16 00:26:03;;;;;;;15.70;11.88;;;487.00;2380.80;;;;;;5093034;28;20426;-63
2023/09/16 00:28:30;;;;;;;13.38;11.88;;;487.00;2022.40;;;;;;5091825;28;20039;-65
2023/09/16 00:30:57;;;;;;;14.52;11.77;;;487.00;2252.80;;;;;;5083427;28;20102;-64
2023/09/16 00:33:23;;;;;;;14.00;12.00;;;487.00;2048.00;;;;;;5092677;28;20489;-63
2023/09/16 00:35:50;;;;;;;14.10;12.05;;;487.00;2380.80;;;;;;5091049;28;20114;-65
2023/09/16 00:38:16;;;;;;;11.63;10.48;;;487.00;2380.80;;;;;;5092519;28;20028;-63
2023/09/16 00:40:42;;;;;;;13.48;12.02;;;487.00;2355.20;;;;;;5091290;28;20052;-64
2023/09/16 00:43:07;;;;;;;14.30;11.52;;;487.10;2380.80;;;;;;5092347;28;20485;-64
2023/09/16 00:45:34;;;;;;;13.00;11.50;;;487.00;2380.80;;;;;;5092045;28;20051;-63
2023/09/16 00:48:00;;;;;;;13.63;11.48;;;487.10;2380.80;;;;;;5092191;28;20032;-64
2023/09/16 00:50:26;;;;;;;12.55;10.98;;;487.10;2380.80;;;;;;5062561;28;20073;-65
2023/09/16 00:52:56;;;;;;;14.82;11.35;;;487.10;2380.80;;;;;;5082268;28;20398;-65
2023/09/16 00:55:23;;;;;;;13.70;11.48;;;487.10;2380.80;;;;;;5092314;28;20028;-65
2023/09/16 00:57:52;;;;;;;17.95;11.65;;;487.10;2380.80;;;;;;5092046;28;20066;-66
2023/09/16 01:00:18;;;;;;;13.52;11.45;;;487.10;2380.80;;;;;;5091840;28;20046;-66
2023/09/16 01:02:45;;;;;;;12.50;11.07;;;487.20;2380.80;;;;;;5092209;28;20144;-66
2023/09/16 01:05:15;;;;;;;13.13;11.73;;;487.10;2380.80;;;;;;5092021;28;20016;-65
2023/09/16 01:07:41;;;;;;;14.27;12.77;;;487.10;2380.80;;;;;;5092241;28;20020;-66
2023/09/16 01:10:11;;;;;;;13.70;10.48;;;487.10;2380.80;;;;;;5077350;28;20111;-66
2023/09/16 01:12:41;;;;;;;13.45;12.05;;;487.10;2380.80;;;;;;5091728;28;20032;-63
2023/09/16 01:15:08;;;;;;;14.43;11.95;;;487.10;2380.80;;;;;;5091676;28;20064;-67
2023/09/16 01:17:40;;;;;;;13.15;11.75;;;487.10;2380.80;;;;;;5091962;28;20343;-65
2023/09/16 01:20:11;;;;;;;14.02;12.57;;;487.20;2380.80;;;;;;5084560;28;20025;-66
2023/09/16 01:22:39;;;;;;;18.38;12.10;;;487.10;2380.80;;;;;;5075283;28;20033;-65
2023/09/16 01:25:05;;;;;;;14.77;13.35;;;487.20;2380.80;;;;;;5092075;28;20096;-64
2023/09/16 01:27:31;;;;;;;13.68;11.75;;;487.10;2380.80;;;;;;5091750;28;20034;-66
2023/09/16 01:30:00;;;;;;;13.20;10.98;;;487.10;2380.80;;;;;;5091684;28;20022;-65
2023/09/16 01:32:34;;;;;;;14.55;11.80;;;487.20;2380.80;;;;;;5089327;28;20040;-64
2023/09/16 01:35:06;;;;;;;13.60;12.20;;;487.10;2380.80;;;;;;5074914;28;20025;-64
2023/09/16 01:37:33;;;;;;;15.18;12.70;;;487.10;2380.80;;;;;;5077151;28;20059;-65
2023/09/16 01:39:59;;;;;;;14.23;12.73;;;487.10;2380.80;;;;;;5082195;28;20126;-67
2023/09/16 01:42:30;;;;;;;15.63;12.25;;;487.20;2380.80;;;;;;5078029;28;20452;-67
2023/09/16 01:44:56;;;;;;;12.88;11.25;;;487.10;2380.80;;;;;;5091441;28;20063;-66
2023/09/16 01:47:22;;;;;;;13.15;11.85;;;487.10;2380.80;;;;;;5090986;28;20044;-66
2023/09/16 01:49:48;;;;;;;12.52;11.23;;;487.10;2380.80;;;;;;5086812;28;20028;-66
2023/09/16 01:52:16;;;;;;;13.93;11.75;;;487.10;2380.80;;;;;;5075232;28;20028;-65
2023/09/16 01:54:42;;;;;;;13.27;11.88;;;487.10;2380.80;;;;;;5090789;28;20052;-64
2023/09/16 01:57:08;;;;;;;12.95;11.05;;;487.10;2380.80;;;;;;5090998;28;20016;-67
2023/09/16 01:59:34;;;;;;;12.43;10.60;;;487.10;2380.80;;;;;;5089067;28;20024;-65
2023/09/16 02:02:00;;;;;;;10.40;9.32;;;487.10;2380.80;;;;;;5090311;28;20223;-62
2023/09/16 02:04:26;;;;;;;13.85;11.43;;;487.10;2380.80;;;;;;5091150;28;20466;-63
2023/09/16 02:06:51;;;;;;;12.25;10.93;;;487.00;2380.80;;;;;;5091212;28;20066;-65
2023/09/16 02:09:17;;;;;;;14.55;10.90;;;487.10;2380.80;;;;;;5090799;28;20028;-67
2023/09/16 02:11:43;;;;;;;12.18;10.88;;;487.10;2380.80;;;;;;5076700;28;20035;-63
2023/09/16 02:14:11;;;;;;;14.77;11.70;;;487.10;2380.80;;;;;;5090798;28;20043;-65
2023/09/16 02:16:37;;;;;;;16.13;11.73;;;487.00;2380.80;;;;;;5088566;28;20509;-65
2023/09/16 02:19:03;;;;;;;13.05;11.65;;;486.90;2380.80;;;;;;5091366;28;20024;-66
2023/09/16 02:21:29;;;;;;;14.02;11.95;;;487.10;2380.80;;;;;;5090307;28;20016;-66
2023/09/16 02:23:55;;;;;;;14.45;12.95;;;487.00;2380.80;;;;;;5091034;28;20347;-66
2023/09/16 02:26:20;;;;;;;13.98;12.55;;;487.00;2380.80;;;;;;5090616;28;20381;-65
2023/09/16 02:28:46;;;;;;;11.73;10.52;;;487.10;2380.80;;;;;;5068987;28;20100;-63
2023/09/16 02:31:12;;;;;;;13.13;11.80;;;487.10;2380.80;;;;;;5073240;28;20097;-66
2023/09/16 02:33:38;;;;;;;14.25;11.38;;;487.00;2380.80;;;;;;5090108;28;20036;-66
2023/09/16 02:36:04;;;;;;;13.55;12.15;;;487.00;2380.80;;;;;;5089502;28;20112;-64
2023/09/16 02:38:30;;;;;;;11.77;10.63;;;487.00;2380.80;;;;;;5089639;28;20396;-65
2023/09/16 02:40:56;;;;;;;13.88;12.38;;;487.00;2380.80;;;;;;5086616;28;20040;-65
2023/09/16 02:43:21;;;;;;;15.30;12.05;;;487.10;2380.80;;;;;;5090392;28;20028;-67
2023/09/16 02:45:47;;;;;;;13.70;12.32;;;487.00;2380.80;;;;;;5077574;28;20370;-65
2023/09/16 02:48:17;;;;;;;15.73;13.02;;;487.00;2380.80;;;;;;5080264;28;20360;-64
2023/09/16 02:50:46;;;;;;;14.45;12.80;;;487.10;2380.80;;;;;;5070307;28;20035;-65
2023/09/16 02:53:12;;;;;;;18.30;14.95;;;487.00;2380.80;;;;;;5082702;28;20039;-67
2023/09/16 02:55:38;;;;;;;15.05;13.25;;;486.90;2380.80;;;;;;5089884;28;20024;-64
2023/09/16 02:58:04;;;;;;;13.73;12.35;;;486.90;2380.80;;;;;;5075591;28;20442;-65
2023/09/16 03:00:30;;;;;;;15.82;12.00;;;486.90;2380.80;;;;;;5083353;28;20043;-66
2023/09/16 03:02:56;;;;;;;14.35;12.85;;;486.90;2380.80;;;;;;5089910;28;20067;-65
2023/09/16 03:05:22;;;;;;;14.85;12.18;;;486.90;2380.80;;;;;;5089693;28;20107;-66
2023/09/16 03:07:48;;;;;;;14.00;12.50;;;487.00;2380.80;;;;;;5089720;28;20411;-66
2023/09/16 03:10:14;;;;;;;14.25;12.80;;;486.90;2380.80;;;;;;5089468;28;20073;-66
2023/09/16 03:12:40;;;;;;;15.20;13.27;;;486.80;2380.80;;;;;;5089467;28;20036;-67
2023/09/16 03:15:06;;;;;;;13.85;12.45;;;486.80;2380.80;;;;;;5089985;28;20016;-66
2023/09/16 03:17:32;;;;;;;14.30;12.80;;;486.90;2380.80;;;;;;5089560;28;20413;-66
2023/09/16 03:19:58;;;;;;;15.77;14.05;;;487.00;2380.80;;;;;;5089285;28;20023;-62
2023/09/16 03:22:23;;;;;;;15.90;13.80;;;486.90;2380.80;;;;;;5089952;28;20106;-66
2023/09/16 03:24:49;;;;;;;16.92;13.52;;;486.90;2124.80;;;;;;5089468;28;20031;-66
2023/09/16 03:27:15;;;;;;;18.58;15.77;;;486.80;2380.80;;;;;;5089296;28;20416;-67
2023/09/16 03:29:41;;;;;;;16.65;12.52;;;486.90;2380.80;;;;;;5083867;28;20416;-63
2023/09/16 03:32:07;;;;;;;18.30;13.65;;;486.90;2176.00;;;;;;5070242;28;20031;-63
2023/09/16 03:34:32;;;;;;;16.45;14.45;;;487.00;2380.80;;;;;;5087497;28;20035;-66
2023/09/16 03:36:59;;;;;;;14.05;12.60;;;487.00;2380.80;;;;;;5089481;28;20077;-65
2023/09/16 03:39:24;;;;;;;15.25;13.00;;;486.90;2380.80;;;;;;5089092;28;20035;-65
2023/09/16 03:41:50;;;;;;;15.25;13.13;;;487.10;2380.80;;;;;;5089167;28;20042;-63
2023/09/16 03:44:16;;;;;;;14.95;12.98;;;487.00;2380.80;;;;;;5084632;28;20466;-63
2023/09/16 03:46:42;;;;;;;15.80;13.73;;;487.00;2380.80;;;;;;5079602;28;20024;-65
2023/09/16 03:49:08;;;;;;;16.83;14.18;;;486.90;2022.40;;;;;;5087991;28;20040;-64
2023/09/16 03:51:36;;;;;;;17.30;14.55;;;486.90;2380.80;;;;;;5077177;28;20035;-65
2023/09/16 03:54:03;;;;;;;16.90;14.43;;;486.80;2380.80;;;;;;5087911;28;20028;-62
2023/09/16 03:56:29;;;;;;;18.70;15.48;;;486.80;2380.80;;;;;;5089058;28;20024;-63
2023/09/16 03:58:55;;;;;;;17.88;15.57;;;486.70;2380.80;;;;;;5089069;28;20031;-62
2023/09/16 04:01:21;;;;;;;16.77;14.52;;;486.60;2380.80;;;;;;5089005;28;20016;-64
2023/09/16 04:03:47;;;;;;;23.15;15.10;;;486.50;2380.80;;;;;;5078829;28;20025;-65
2023/09/16 04:06:14;;;;;;;15.52;13.93;;;486.50;2380.80;;;;;;5067015;28;20482;-66
2023/09/16 04:08:40;;;;;;;16.27;13.50;;;486.60;2380.80;;;;;;5075079;28;20036;-66
2023/09/16 04:11:06;;;;;;;18.75;14.73;;;486.70;2380.80;;;;;;5089454;28;20032;-66
2023/09/16 04:13:32;;;;;;;18.40;16.15;;;486.60;2380.80;;;;;;5087420;28;20028;-65
2023/09/16 04:15:58;;;;;;;19.35;16.08;;;486.60;2380.80;;;;;;5088997;28;20022;-62
2023/09/16 04:18:24;;;;;;;17.77;14.50;;;486.80;2380.80;;;;;;5088768;28;20028;-66
2023/09/16 04:20:55;;;;;;;17.83;15.55;;;486.60;2380.80;;;;;;5089169;28;20028;-64
2023/09/16 04:23:24;;;;;;;18.60;15.43;;;486.60;2380.80;;;;;;5088933;28;20032;-62
2023/09/16 04:25:56;;;;;;;16.95;15.15;;;486.70;2380.80;;;;;;5087725;28;20032;-63
2023/09/16 04:28:22;;;;;;;18.35;16.40;;;486.70;2380.80;;;;;;5089164;28;20066;-66
2023/09/16 04:30:49;;;;;;;17.05;15.07;;;486.60;2380.80;;;;;;5088525;28;20028;-66
2023/09/16 04:33:16;;;;;;;17.63;15.23;;;486.60;2380.80;;;;;;5085367;28;20035;-65
2023/09/16 04:35:46;;;;;;;17.45;14.93;;;486.80;2380.80;;;;;;5075341;28;20025;-62
2023/09/16 04:38:16;;;;;;;17.58;15.63;;;486.80;2380.80;;;;;;5070557;28;20025;-65
2023/09/16 04:40:43;;;;;;;17.67;15.52;;;486.80;2380.80;;;;;;5065855;28;20055;-64
2023/09/16 04:43:12;;;;;;;19.60;16.00;;;486.80;2380.80;;;;;;5068847;28;20023;-66
2023/09/16 04:45:39;;;;;;;18.08;15.02;;;486.70;2380.80;;;;;;5084652;28;20024;-63
2023/09/16 04:48:05;;;;;;;16.05;14.45;;;486.80;2380.80;;;;;;5086311;28;20073;-66
2023/09/16 04:50:31;;;;;;;18.75;15.02;;;486.70;2380.80;;;;;;5072844;28;20111;-62
2023/09/16 04:52:58;;;;;;;18.05;15.80;;;486.80;2380.80;;;;;;5070526;28;20871;-65
2023/09/16 04:55:24;;;;;;;16.50;14.55;;;486.80;2380.80;;;;;;5081739;28;20024;-66
2023/09/16 04:57:50;;;;;;;16.52;14.88;;;486.80;2380.80;;;;;;5069774;28;20434;-65
2023/09/16 05:00:17;;;;;;;16.90;15.00;;;486.90;2380.80;;;;;;5085675;28;20521;-65
2023/09/16 05:02:48;;;;;;;18.58;16.65;;;486.80;2380.80;;;;;;5072221;28;20020;-64
2023/09/16 05:05:14;;;;;;;18.40;16.40;;;486.80;2380.80;;;;;;5075809;28;20070;-66
2023/09/16 05:07:40;;;;;;;19.60;16.20;;;486.90;2380.80;;;;;;5078383;28;20047;-66
2023/09/16 05:10:07;;;;;;;16.85;15.00;;;487.00;2380.80;;;;;;5069994;28;20056;-65
2023/09/16 05:12:32;;;;;;;16.08;14.35;;;486.90;2380.80;;;;;;5091875;28;20067;-65
2023/09/16 05:14:58;;;;;;;19.65;16.58;;;487.10;2201.60;;;;;;5091724;28;20035;-65
2023/09/16 05:17:24;;;;;;;18.98;15.88;;;487.10;2073.60;;;;;;5089060;28;20031;-65
2023/09/16 05:19:49;;;;;;;18.40;15.32;;;487.20;2380.80;;;;;;5089059;28;20016;-66
2023/09/16 05:22:15;;;;;;;17.90;14.02;;;487.30;2380.80;;;;;;5077277;28;20375;-65
2023/09/16 05:24:41;;;;;;;16.48;13.55;;;512.10;2380.80;;;;;;5089212;28;20027;-64
2023/09/16 05:27:07;;;;;;;14.95;13.10;;;512.20;2380.80;;;;;;5091701;28;20043;-66
2023/09/16 05:29:33;;;;;;;15.38;13.88;;;512.30;2380.80;;;;;;5078110;28;20104;-66
2023/09/16 05:31:59;;;;;;;15.13;12.80;;;512.40;2380.80;;;;;;5091587;28;20114;-65
2023/09/16 05:34:25;;;;;;;15.70;13.07;;;512.40;2380.80;;;;;;5086597;28;20025;-65
2023/09/16 05:36:51;;;;;;;14.02;12.63;;;512.50;2380.80;;;;;;5082355;28;20028;-65
2023/09/16 05:39:16;;;;;;;17.52;13.80;;;512.70;2380.80;;;;;;5077140;28;20128;-62
2023/09/16 05:41:43;;;;;;;14.75;12.98;;;512.80;2380.80;;;;;;5081759;28;20069;-64
2023/09/16 05:44:09;;;;;;;16.45;14.63;;;512.90;2380.80;;;;;;5074384;28;20032;-66
2023/09/16 05:46:35;;;;;;;16.23;14.23;;;537.60;2406.40;;;;;;5078749;28;20024;-64
2023/09/16 05:49:07;;;;;;;14.75;13.43;;;537.70;2406.40;;;;;;5075983;28;20051;-62
2023/09/16 05:51:33;;;;;;;16.20;13.15;;;537.60;2406.40;;;;;;5091408;28;20012;-66
2023/09/16 05:53:59;;;;;;;15.88;14.30;;;537.80;2406.40;;;;;;5079586;28;20036;-66
2023/09/16 05:56:25;;;;;;;16.10;13.00;;;537.90;2406.40;;;;;;5090411;28;20026;-66
2023/09/16 05:58:50;;;;;;;14.45;13.02;;;538.00;2406.40;;;;;;5089451;28;20044;-62
2023/09/16 06:01:16;;;;;;;17.27;13.90;;;538.20;2406.40;;;;;;5091365;28;20028;-66
2023/09/16 06:03:42;;;;;;;16.65;13.50;;;538.30;2406.40;;;;;;5091342;28;20511;-66
2023/09/16 06:06:07;;;;;;;16.33;14.10;;;538.40;2406.40;;;;;;5075807;28;20031;-66
2023/09/16 06:08:33;;;;;;;19.77;14.80;;;538.50;2406.40;;;;;;5070712;28;20052;-65
2023/09/16 06:10:59;;;;;;;15.90;14.35;;;563.20;2432.00;;;;;;5082742;28;20070;-65
2023/09/16 06:13:26;;;;;;;14.93;13.35;;;563.30;2432.00;;;;;;5080673;28;20441;-65
2023/09/16 06:15:51;;;;;;;14.85;12.82;;;563.40;2432.00;;;;;;5085191;28;20024;-65
2023/09/16 06:18:17;;;;;;;14.55;13.25;;;538.50;2406.40;;;;;;5065421;28;20028;-64
2023/09/16 06:20:43;;;;;;;14.75;13.25;;;538.50;2406.40;;;;;;5086689;28;20028;-63
2023/09/16 06:23:09;;;;;;;14.23;12.45;;;563.40;2432.00;;;;;;5079625;28;20224;-63
2023/09/16 06:25:35;;;;;;;13.77;12.38;;;563.60;2432.00;;;;;;5078826;28;20038;-62
2023/09/16 06:28:01;;;;;;;14.20;12.90;;;563.40;2432.00;;;;;;5090020;28;20363;-64
2023/09/16 06:30:26;;;;;;;14.45;12.95;;;563.30;2432.00;;;;;;5069462;28;20032;-63
2023/09/16 06:32:53;;;;;;;13.70;12.40;;;563.20;2432.00;;;;;;5067442;28;20032;-66
2023/09/16 06:35:19;;;;;;;16.02;14.13;;;563.20;2432.00;;;;;;5066832;28;20048;-64
2023/09/16 06:37:44;;;;;;;16.10;14.60;;;563.20;2432.00;;;;;;5069442;28;20110;-65
2023/09/16 06:40:11;;;;;;;16.10;14.50;;;563.30;2432.00;;;;;;5071294;28;20095;-68
2023/09/16 06:42:36;;;;;;;15.98;14.38;;;563.30;2432.00;;;;;;5068386;28;20098;-64
2023/09/16 06:45:02;;;;;;;14.75;13.25;;;563.50;2432.00;;;;;;5078274;28;20454;-66
2023/09/16 06:47:28;;;;;;;15.15;13.10;;;563.70;2432.00;;;;;;5083632;28;20037;-66
2023/09/16 06:49:55;;;;;;;12.77;11.48;;;564.10;2432.00;;;;;;5073410;28;20378;-65
2023/09/16 06:52:26;;;;;;;13.50;12.15;;;589.00;2432.00;;;;;;5084692;28;20020;-65
2023/09/16 06:54:52;;;;;;;12.73;11.52;;;614.40;2432.00;;;;;;5081741;28;20062;-64
2023/09/16 06:57:18;;;;;;;11.02;10.02;;;;;;;;;;5089869;28;20016;-66
2023/09/16 06:59:48;;;;;;;12.63;10.38;;;;;;;;;;5090319;28;20089;-66
2023/09/16 07:02:14;;;;;;;11.38;10.35;;;;;;;;;;5089820;28;20024;-66
2023/09/16 07:04:40;;;;;;;11.63;10.45;;;742.40;2432.00;;;;;;5089834;28;20028;-66
2023/09/16 07:07:08;;;;;;;11.98;10.88;;;717.70;2432.00;;;;;;5090024;28;20020;-67
2023/09/16 07:09:33;;;;;;;11.70;10.55;;;742.50;2432.00;;;;;;5089654;28;20416;-66
2023/09/16 07:11:59;;;;;;;10.77;9.88;;;794.00;2252.80;;;;;;5089875;28;20032;-67
2023/09/16 07:14:25;;;;;;;12.05;10.90;;;794.30;2227.20;;;;;;5090353;28;20031;-64
2023/09/16 07:16:51;;;;;;;11.43;10.32;;;819.90;2073.60;;;;;;5089905;28;20013;-67
2023/09/16 07:19:17;;;;;;;13.75;12.32;;;793.60;2150.40;;;;;;5089412;28;20489;-64
2023/09/16 07:21:43;;;;;;;14.85;13.30;;;768.80;2176.00;;;;;;5075253;28;20028;-63
2023/09/16 07:24:09;;;;;;;14.60;12.75;;;742.90;2304.00;;;;;;5063344;28;20024;-65
2023/09/16 07:26:34;;;;;;;12.82;11.45;;;717.60;2329.60;;;;;;5073971;28;20020;-64
2023/09/16 07:29:00;;;;;;;14.38;12.98;;;717.50;2355.20;;;;;;5062824;28;20031;-63
2023/09/16 07:31:26;;;;;;;13.60;12.18;;;717.20;2380.80;;;;;;5089689;28;20107;-64
2023/09/16 07:33:52;;;;;;;13.57;12.30;;;692.10;2432.00;;;;;;5077276;28;20045;-65
2023/09/16 07:36:17;;;;;;;14.65;13.30;;;691.90;2432.00;;;;;;5074541;28;20065;-66
2023/09/16 07:38:44;;;;;;;14.57;13.38;;;691.80;2432.00;;;;;;5089706;28;20028;-66
2023/09/16 07:41:10;;;;;;;12.25;11.07;;;716.90;2432.00;;;;;;5089485;28;20024;-65
2023/09/16 07:43:36;;;;;;;12.80;11.60;;;742.40;2432.00;;;;;;5089122;28;20106;-66
2023/09/16 07:46:02;;;;;;;13.07;11.88;;;768.90;2252.80;;;;;;5062716;28;20504;-63
2023/09/16 07:48:28;;;;;;;14.90;13.32;;;845.20;2073.60;;;;;;5089049;28;20028;-67
2023/09/16 07:50:54;;;;;;;13.25;12.05;;;871.10;1971.20;;;;;;5088951;28;20024;-67
2023/09/16 07:53:20;;;;;;;12.30;11.23;;;922.40;1792.00;;;;;;5075613;28;20398;-63
2023/09/16 07:55:46;;;;;;;13.13;11.30;;;948.10;1715.20;;;;;;5056744;28;20538;-65
2023/09/16 07:58:12;;;;;;;11.60;10.43;;;947.30;1664.00;;;;;;5071427;28;20123;-66
2023/09/16 08:00:38;;;;;;;13.27;12.10;;;947.80;1612.80;;;;;;5083439;28;20017;-63
2023/09/16 08:03:04;;;;;;;12.60;11.50;;;871.00;1766.40;;;;;;5075573;28;20024;-67
2023/09/16 08:05:30;;;;;;;16.13;12.35;;;870.70;1817.60;;;;;;5088925;28;20492;-67
2023/09/16 08:07:55;;;;;;;30.10;14.55;;;870.50;1868.80;;;;;;5089236;28;20028;-67
2023/09/16 08:10:21;;;;;;;18.23;13.93;;;845.20;1920.00;;;;;;5086181;28;20462;-65
2023/09/16 08:12:47;;;;;;;14.02;12.57;;;870.70;1843.20;;;;;;5075946;28;20044;-64
2023/09/16 08:15:13;;;;;;;12.77;11.48;;;896.50;1792.00;;;;;;5067316;28;20033;-66
2023/09/16 08:17:38;;;;;;;14.25;13.00;;;896.30;1740.80;;;;;;5086656;28;20518;-66
2023/09/16 08:20:08;;;;;;;15.55;14.15;;;921.70;1689.60;;;;;;5088920;28;20470;-67
2023/09/16 08:22:34;;;;;;;13.45;12.07;;;947.20;1638.40;;;;;;5089033;28;20033;-67
2023/09/16 08:25:01;;;;;;;15.13;13.80;;;948.10;1638.40;;;;;;5088967;28;20036;-62
2023/09/16 08:27:27;;;;;;;16.02;14.63;;;972.80;1638.40;;;;;;5080171;28;20032;-64
2023/09/16 08:29:54;;;;;;;16.90;15.15;;;998.80;1561.60;;;;;;5069542;28;20386;-65
2023/09/16 08:32:22;;;;;;;15.98;14.57;;;973.50;1587.20;;;;;;5088012;28;20531;-65
2023/09/16 08:34:50;;;;;;;15.25;14.05;;;998.80;1561.60;;;;;;5092726;28;20493;-65
2023/09/16 08:37:16;;;;;;;16.58;15.18;;;998.50;1561.60;;;;;;5089598;28;20027;-68
2023/09/16 08:39:42;;;;;;;16.95;15.65;;;998.50;1587.20;;;;;;5079066;28;20154;-67
2023/09/16 08:42:33;;;;;;;16.15;14.80;;;973.60;1536.00;;;;;;5091500;28;20572;-64
2023/09/16 08:45:03;;;;;;;16.08;14.65;;;948.10;1561.60;;;;;;5091269;28;20355;-68
2023/09/16 08:47:52;;;;;;;16.85;15.45;;;948.10;1561.60;;;;;;5081116;28;20522;-67
2023/09/16 08:50:22;;;;;;;16.73;15.27;;;947.60;1587.20;;;;;;5076744;28;20054;-65
2023/09/16 08:52:54;;;;;;;18.20;16.48;;;921.80;1664.00;;;;;;5092257;28;20032;-64
2023/09/16 08:55:21;;;;;;;17.30;15.68;;;871.30;1689.60;;;;;;5092157;28;20043;-66
2023/09/16 08:58:11;;;;;;;17.73;16.17;;;845.20;1817.60;;;;;;5092510;28;20077;-64
2023/09/16 09:00:37;;;;;;;20.17;17.00;;;819.50;1868.80;;;;;;5067969;28;20051;-67
2023/09/16 09:03:03;;;;;;;20.70;17.48;;;794.00;1920.00;;;;;;5073339;28;20028;-65
2023/09/16 09:05:31;;;;;;;19.23;16.83;;;768.90;1920.00;;;;;;5092084;28;20031;-63
2023/09/16 09:07:58;;;;;;;18.88;17.17;;;768.60;1945.60;;;;;;5075654;28;20028;-66
2023/09/16 09:10:24;;;;;;;18.70;17.15;;;743.10;2022.40;;;;;;5084839;28;20081;-65
2023/09/16 09:12:50;;;;;;;19.95;18.15;;;768.60;1971.20;;;;;;5083346;28;20036;-66
2023/09/16 09:15:16;;;;;;;21.35;19.15;;;742.70;2048.00;;;;;;5076797;28;20043;-68
2023/09/16 09:17:46;;;;;;;20.98;19.00;;;717.20;2073.60;;;;;;5072569;28;20501;-65
2023/09/16 09:20:17;;;;;;;21.92;20.08;;;717.20;2099.20;;;;;;5085032;28;20024;-67
2023/09/16 09:22:43;;;;;;;20.17;18.13;;;717.10;2099.20;;;;;;5081272;28;20073;-66
2023/09/16 09:25:10;;;;;;;22.33;20.10;;;742.40;2073.60;;;;;;5089269;28;20514;-67
2023/09/16 09:27:35;;;;;;;35.85;32.47;;;717.40;2073.60;;;;;;5090949;28;20027;-64
2023/09/16 09:30:04;;;;;;;25.85;23.45;;;742.60;2099.20;;;;;;5086746;28;20025;-66
2023/09/16 09:32:31;;;;;;;21.38;19.27;;;742.60;2124.80;;;;;;5086147;28;20044;-64
2023/09/16 09:35:06;;;;;;;22.42;20.35;;;743.00;2022.40;;;;;;5078528;28;20043;-64
2023/09/16 09:37:32;;;;;;;22.80;18.42;;;742.80;2124.80;;;;;;5071043;28;20028;-67
2023/09/16 09:40:12;;;;;;;19.73;17.80;;;743.00;2124.80;;;;;;5085829;28;20056;-66
2023/09/16 09:42:42;;;;;;;20.20;18.23;;;742.90;2150.40;;;;;;5074221;28;20070;-66
2023/09/16 09:45:09;;;;;;;20.85;18.83;;;742.90;2099.20;;;;;;5085250;28;20024;-67
2023/09/16 09:47:39;;;;;;;19.98;18.08;;;717.30;2099.20;;;;;;5083196;28;20031;-66
2023/09/16 09:50:07;;;;;;;19.70;17.35;;;717.50;2124.80;;;;;;5071292;28;20021;-63
2023/09/16 09:52:34;;;;;;;19.05;17.23;;;717.10;2150.40;;;;;;5079695;28;20028;-67
2023/09/16 09:55:01;;;;;;;29.60;26.90;;;717.10;2176.00;;;;;;5082319;28;20043;-65
2023/09/16 09:57:29;;;;;;;20.38;18.25;;;717.50;2176.00;;;;;;5088859;28;20485;-65
2023/09/16 09:59:56;;;;;;;17.63;15.82;;;717.50;2150.40;;;;;;5070337;28;20202;-67
2023/09/16 10:02:26;;;;;;;18.05;16.40;;;717.10;2150.40;;;;;;5087552;28;20028;-68
2023/09/16 10:05:01;;;;;;;16.30;14.80;;;692.00;2176.00;;;;;;5075691;28;20649;-67
2023/09/16 10:07:29;;;;;;;16.98;15.27;;;691.50;2201.60;;;;;;5064665;28;20364;-65
2023/09/16 10:09:55;;;;;;;17.45;15.88;;;691.60;2227.20;;;;;;5079212;28;20028;-64
2023/09/16 10:12:21;;;;;;;18.33;16.67;;;691.70;2227.20;;;;;;5074876;28;20174;-63
2023/09/16 10:14:53;;;;;;;18.48;16.65;;;666.50;2252.80;;;;;;5088904;28;20055;-66
2023/09/16 10:17:21;;;;;;;18.33;15.48;;;666.40;2278.40;;;;;;5089191;28;20424;-67
2023/09/16 10:19:47;;;;;;;15.63;14.00;;;691.40;2252.80;;;;;;5089245;28;20028;-64
2023/09/16 10:22:14;;;;;;;16.75;14.95;;;666.50;2278.40;;;;;;5088616;28;20074;-63
2023/09/16 10:24:43;;;;;;;14.70;12.52;;;666.20;2329.60;;;;;;5088417;28;20028;-67
2023/09/16 10:27:19;;;;;;;14.13;12.68;;;666.00;2304.00;;;;;;5088637;28;20020;-65
2023/09/16 10:29:48;;;;;;;13.93;12.65;;;666.10;2304.00;;;;;;5089031;28;20031;-67
2023/09/16 10:32:15;;;;;;;15.75;12.93;;;666.00;2304.00;;;;;;5088421;28;20116;-62
2023/09/16 10:34:44;;;;;;;18.63;16.73;;;665.90;2304.00;;;;;;5088935;28;20020;-65
2023/09/16 10:37:10;;;;;;;16.73;14.73;;;666.10;2304.00;;;;;;5088633;28;20073;-65
2023/09/16 10:39:38;;;;;;;13.65;12.38;;;691.30;2252.80;;;;;;5088756;28;20051;-64
2023/09/16 10:42:08;;;;;;;14.48;13.00;;;691.20;2252.80;;;;;;5087241;28;20032;-63
2023/09/16 10:44:34;;;;;;;14.50;13.10;;;691.40;2252.80;;;;;;5067475;28;20029;-67
2023/09/16 10:47:04;;;;;;;15.63;13.77;;;691.20;2252.80;;;;;;5069468;28;20020;-65
2023/09/16 10:49:30;;;;;;;15.27;13.70;;;666.50;2278.40;;;;;;5088984;28;20016;-67
2023/09/16 10:52:02;;;;;;;14.90;13.45;;;691.60;2252.80;;;;;;5088208;28;20596;-63
2023/09/16 10:54:51;;;;;;;14.88;12.98;;;691.80;2227.20;;;;;;5088375;28;20105;-65
2023/09/16 10:57:24;;;;;;;14.10;12.60;;;691.40;2252.80;;;;;;5075463;28;20481;-66
2023/09/16 10:59:52;;;;;;;15.48;13.88;;;691.70;2252.80;;;;;;5088444;28;20550;-64
2023/09/16 11:02:41;;;;;;;14.40;13.10;;;691.80;2227.20;;;;;;5061361;28;20466;-67
2023/09/16 11:05:07;;;;;;;14.07;12.68;;;716.90;2201.60;;;;;;5087221;28;20027;-65
2023/09/16 11:07:35;;;;;;;16.63;14.85;;;716.80;2227.20;;;;;;5089034;28;20181;-65
2023/09/16 11:10:03;;;;;;;15.43;13.82;;;716.80;2201.60;;;;;;5087741;28;20653;-67
2023/09/16 11:12:31;;;;;;;16.67;14.93;;;717.00;2201.60;;;;;;5088230;28;20055;-63
2023/09/16 11:14:57;;;;;;;16.33;14.70;;;692.10;2201.60;;;;;;5081721;28;20032;-65
2023/09/16 11:17:23;;;;;;;17.67;15.20;;;691.90;2227.20;;;;;;5079827;28;20024;-63
2023/09/16 11:19:51;;;;;;;16.48;14.95;;;691.30;2278.40;;;;;;5069974;28;20119;-63
2023/09/16 11:22:17;;;;;;;16.35;14.85;;;691.40;2278.40;;;;;;5072933;28;20107;-66
2023/09/16 11:24:43;;;;;;;14.85;13.45;;;691.70;2252.80;;;;;;5076377;28;20128;-64
2023/09/16 11:27:09;;;;;;;16.48;14.70;;;691.90;2227.20;;;;;;5079619;28;20034;-64
2023/09/16 11:29:36;;;;;;;16.75;15.13;;;691.40;2252.80;;;;;;5086426;28;20032;-64
2023/09/16 11:32:02;;;;;;;17.83;15.13;;;691.70;2252.80;;;;;;5083802;28;20566;-65
2023/09/16 11:34:29;;;;;;;16.00;14.40;;;692.10;2201.60;;;;;;5086206;28;20055;-63
2023/09/16 11:37:01;;;;;;;14.57;13.10;;;717.20;2201.60;;;;;;5076380;28;20031;-62
2023/09/16 11:39:42;;;;;;;15.88;14.38;;;692.00;2201.60;;;;;;5073126;28;20041;-66
2023/09/16 11:42:09;;;;;;;17.33;15.55;;;691.90;2227.20;;;;;;5076448;28;20032;-64
2023/09/16 11:44:38;;;;;;;18.00;16.10;;;691.80;2227.20;;;;;;5072258;28;20029;-65
2023/09/16 11:47:06;;;;;;;17.98;16.17;;;691.80;2227.20;;;;;;5080803;28;20429;-66
2023/09/16 11:49:33;;;;;;;16.58;14.88;;;717.10;2227.20;;;;;;5087794;28;20517;-67
2023/09/16 11:51:59;;;;;;;18.67;16.77;;;717.10;2201.60;;;;;;5076708;28;20032;-65
2023/09/16 11:54:25;;;;;;;18.05;15.45;;;716.80;2201.60;;;;;;5065916;28;20044;-64
2023/09/16 11:56:53;;;;;;;16.38;14.88;;;717.20;2201.60;;;;;;5074063;28;20105;-63
2023/09/16 11:59:18;;;;;;;19.73;15.15;;;717.30;2201.60;;;;;;5077397;28;20089;-64
2023/09/16 12:01:45;;;;;;;17.27;15.68;;;692.10;2201.60;;;;;;5083235;28;20025;-67